Fort Worth - NOAA's Hourly Summary for Wednesday, March 15, 2017
Hour Temp
(f)
RH
(%)
Solar Rad.
(MJ/m2)
Rainfall
(in)
Wind
(mph)
3/15/2017 12:00 AM 54 47 0 0 8.28
3/15/2017 1:00 AM 52 47 0 0 8.64
3/15/2017 2:00 AM 50 51 0 0 9.19
3/15/2017 3:00 AM 48 53 0 0 10.58
3/15/2017 4:00 AM 47 56 0 0 8.31
3/15/2017 5:00 AM 46 58 0 0 7.23
3/15/2017 6:00 AM 45 60 0 0 8.08
3/15/2017 7:00 AM 45 63 0.01 0 8.74
3/15/2017 8:00 AM 46 64 0.3 0 7.86
3/15/2017 9:00 AM 48 64 0.9 0 9.94
3/15/2017 10:00 AM 50 62 1.23 0 10.57
3/15/2017 11:00 AM 53 59 1.81 0 9.97
3/15/2017 12:00 PM 55 55 2.71 0 9.4
3/15/2017 1:00 PM 58 52 2.89 0 10.63
3/15/2017 2:00 PM 60 49 2.86 0 8.82
3/15/2017 3:00 PM 63 46 2.6 0 8.21
3/15/2017 4:00 PM 65 46 2.13 0 6.61
3/15/2017 5:00 PM 66 46 1.49 0 7.99
3/15/2017 6:00 PM 65 47 0.7 0 8.54
3/15/2017 7:00 PM 63 50 0.14 0 8.06
3/15/2017 8:00 PM 61 55 0 0 6.81
3/15/2017 9:00 PM 59 58 0 0 5.63
3/15/2017 10:00 PM 58 60 0 0 5.96
3/15/2017 11:00 PM 57 63 0 0 5.65
Data Summary 54 54 19.77 0.00 8.32